createdAt,value
2018-04-18T00:00:49.164Z,14.27
2018-04-18T00:03:17.387Z,14.10
2018-04-18T00:05:45.642Z,13.77
2018-04-18T00:08:14.358Z,13.87
2018-04-18T00:10:42.559Z,13.47
2018-04-18T00:13:10.839Z,13.70
2018-04-18T00:15:39.556Z,12.33
2018-04-18T00:18:07.786Z,12.90
2018-04-18T00:20:35.991Z,11.83
2018-04-18T00:23:04.614Z,12.20
2018-04-18T00:25:32.816Z,11.67
2018-04-18T00:28:01.036Z,11.60
2018-04-18T00:30:29.648Z,11.87
2018-04-18T00:32:57.869Z,11.70
2018-04-18T00:35:26.065Z,11.90
2018-04-18T00:37:54.775Z,11.03
2018-04-18T00:40:22.975Z,10.83
2018-04-18T00:42:51.174Z,10.60
2018-04-18T00:45:19.923Z,10.80
2018-04-18T00:47:48.144Z,11.50
2018-04-18T00:50:16.767Z,10.67
2018-04-18T00:52:45.022Z,10.73
2018-04-18T00:55:13.317Z,10.57
2018-04-18T00:57:41.547Z,10.47
2018-04-18T01:00:10.152Z,10.20
2018-04-18T01:02:38.357Z,10.20
2018-04-18T01:05:06.568Z,10.30
2018-04-18T01:07:35.709Z,9.27
2018-04-18T01:10:04.023Z,9.90
2018-04-18T01:12:32.376Z,8.67
2018-04-18T01:15:00.977Z,9.27
2018-04-18T01:17:29.200Z,9.27
2018-04-18T01:19:57.485Z,9.73
2018-04-18T01:22:26.125Z,9.50
2018-04-18T01:24:54.317Z,9.43
2018-04-18T01:27:22.728Z,9.70
2018-04-18T01:29:51.351Z,8.73
2018-04-18T01:32:19.638Z,9.03
2018-04-18T01:34:47.963Z,8.60
2018-04-18T01:37:16.472Z,8.97
2018-04-18T01:39:44.699Z,9.23
2018-04-18T01:42:13.086Z,8.70
2018-04-18T01:44:41.739Z,9.07
2018-04-18T01:47:09.982Z,9.43
2018-04-18T01:49:38.346Z,8.87
2018-04-18T01:52:06.835Z,9.20
2018-04-18T01:54:35.056Z,9.33
2018-04-18T01:57:03.355Z,8.80
2018-04-18T01:59:31.644Z,9.40
2018-04-18T02:01:59.895Z,7.93
2018-04-18T02:04:28.073Z,8.03
2018-04-18T02:06:56.760Z,7.23
2018-04-18T02:09:25.009Z,9.03
2018-04-18T02:11:53.198Z,8.00
2018-04-18T02:14:21.930Z,7.77
2018-04-18T02:16:50.137Z,7.47
2018-04-18T02:19:18.359Z,7.70
2018-04-18T02:21:47.075Z,8.37
2018-04-18T02:24:15.294Z,7.87
2018-04-18T02:26:43.535Z,7.57
2018-04-18T02:29:12.278Z,7.53
2018-04-18T02:31:40.493Z,8.73
2018-04-18T02:34:08.724Z,7.63
2018-04-18T02:36:37.365Z,8.07
2018-04-18T02:39:06.508Z,8.37
2018-04-18T02:41:34.704Z,7.13
2018-04-18T02:44:03.200Z,7.20
2018-04-18T02:46:31.424Z,7.93
2018-04-18T02:48:59.717Z,8.10
2018-04-18T02:51:28.438Z,8.10
2018-04-18T02:53:56.665Z,8.10
2018-04-18T02:56:24.949Z,8.43
2018-04-18T02:59:14.782Z,9.03
2018-04-18T03:01:48.568Z,7.90
2018-04-18T03:04:17.965Z,7.83
2018-04-18T03:06:46.160Z,8.17
2018-04-18T03:09:14.360Z,7.73
2018-04-18T03:11:43.200Z,8.57
2018-04-18T03:14:11.389Z,8.20
2018-04-18T03:16:39.580Z,8.40
2018-04-18T03:19:08.281Z,8.57
2018-04-18T03:21:36.544Z,8.07
2018-04-18T03:24:04.743Z,7.53
2018-04-18T03:26:33.488Z,9.50
2018-04-18T03:29:01.680Z,7.97
2018-04-18T03:31:29.945Z,7.93
2018-04-18T03:33:58.503Z,8.10
2018-04-18T03:36:26.703Z,7.90
2018-04-18T03:38:55.076Z,8.00
2018-04-18T03:41:23.671Z,7.80
2018-04-18T03:43:51.889Z,8.10
2018-04-18T03:46:20.090Z,7.87
2018-04-18T03:48:48.788Z,7.53
2018-04-18T03:51:17.005Z,7.73
2018-04-18T03:53:45.296Z,9.33
2018-04-18T03:56:14.042Z,9.67
2018-04-18T03:58:42.272Z,9.43
2018-04-18T04:01:10.481Z,8.50
2018-04-18T04:03:39.171Z,7.87
2018-04-18T04:06:07.383Z,8.37
2018-04-18T04:08:35.625Z,8.63
2018-04-18T04:11:09.192Z,8.87
2018-04-18T04:13:37.391Z,9.00
2018-04-18T04:16:07.257Z,8.87
2018-04-18T04:18:47.735Z,8.40
2018-04-18T04:21:27.886Z,8.20
2018-04-18T04:24:22.106Z,8.10
2018-04-18T04:26:55.895Z,7.53
2018-04-18T04:29:24.587Z,8.47
2018-04-18T04:31:53.690Z,24.13
2018-04-18T04:34:21.900Z,9.07
2018-04-18T04:36:50.621Z,8.40
2018-04-18T04:39:18.843Z,8.23
2018-04-18T04:41:47.052Z,8.57
2018-04-18T04:44:15.743Z,9.27
2018-04-18T04:46:44.003Z,8.57
2018-04-18T04:49:12.898Z,9.03
2018-04-18T04:51:41.655Z,8.83
2018-04-18T04:54:10.421Z,8.33
2018-04-18T04:56:38.649Z,8.70
2018-04-18T04:59:06.830Z,8.67
2018-04-18T05:01:35.453Z,8.33
2018-04-18T05:04:03.671Z,8.53
2018-04-18T05:06:31.886Z,8.43
2018-04-18T05:09:00.602Z,7.90
2018-04-18T05:11:28.791Z,8.07
2018-04-18T05:13:56.966Z,8.73
2018-04-18T05:16:25.837Z,8.20
2018-04-18T05:18:54.017Z,8.10
2018-04-18T05:21:22.236Z,8.30
2018-04-18T05:23:50.762Z,8.23
2018-04-18T05:26:18.965Z,8.20
2018-04-18T05:28:47.709Z,8.57
2018-04-18T05:31:15.941Z,8.53
2018-04-18T05:33:44.137Z,9.43
2018-04-18T05:36:12.323Z,8.40
2018-04-18T05:38:41.275Z,8.07
2018-04-18T06:23:30.954Z,7.83
2018-04-18T06:26:03.577Z,8.63
2018-04-18T06:28:46.918Z,8.80
2018-04-18T06:31:24.134Z,8.73
2018-04-18T06:33:57.194Z,8.93
2018-04-18T06:36:28.921Z,8.10
2018-04-18T06:39:05.749Z,9.27
2018-04-18T06:41:43.049Z,8.57
2018-04-18T06:44:11.507Z,9.03
2018-04-18T06:46:50.246Z,7.87
2018-04-18T06:49:18.549Z,8.13
2018-04-18T06:51:54.344Z,8.23
2018-04-18T06:54:41.353Z,8.07
2018-04-18T06:57:14.841Z,7.40
2018-04-18T06:59:52.015Z,7.63
2018-04-18T07:02:34.979Z,7.07
2018-04-18T07:05:24.354Z,7.03
2018-04-18T07:08:02.026Z,6.60
2018-04-18T07:10:46.700Z,6.83
2018-04-18T07:13:25.482Z,6.73
2018-04-18T07:16:05.971Z,7.33
2018-04-18T07:18:59.404Z,6.73
2018-04-18T07:21:31.654Z,6.27
2018-04-18T07:24:13.533Z,7.13
2018-04-18T07:26:52.401Z,6.20
2018-04-18T07:29:32.906Z,6.30
2018-04-18T07:32:07.517Z,6.40
2018-04-18T07:34:55.427Z,6.60
2018-04-18T07:37:28.859Z,5.90
2018-04-18T07:40:00.584Z,5.40
2018-04-18T07:42:51.099Z,5.90
2018-04-18T07:45:29.253Z,6.17
2018-04-18T07:48:04.366Z,6.10
2018-04-18T07:50:41.009Z,5.63
2018-04-18T07:53:15.623Z,5.60
2018-04-18T07:55:46.258Z,8.60
2018-04-18T07:58:14.510Z,5.80
2018-04-18T08:00:43.120Z,6.23
2018-04-18T08:03:11.345Z,5.63
2018-04-18T08:05:39.675Z,6.13
2018-04-18T08:08:08.916Z,6.70
2018-04-18T08:10:37.161Z,6.50
2018-04-18T08:13:05.386Z,6.53
2018-04-18T08:15:33.913Z,15.40
2018-04-18T08:18:02.191Z,7.97
2018-04-18T08:20:30.379Z,6.60
2018-04-18T08:22:59.127Z,7.30
2018-04-18T08:25:27.345Z,6.73
2018-04-18T08:27:56.431Z,8.90
2018-04-18T08:30:24.623Z,10.33
2018-04-18T08:32:53.135Z,8.57
2018-04-18T08:35:21.338Z,8.00
2018-04-18T08:37:49.646Z,8.27
2018-04-18T08:40:18.330Z,9.40
2018-04-18T08:42:46.558Z,8.50
2018-04-18T08:45:14.759Z,8.43
2018-04-18T08:47:43.317Z,8.17
2018-04-18T08:50:11.545Z,8.70
2018-04-18T08:52:39.768Z,8.37
2018-04-18T08:55:08.391Z,8.70
2018-04-18T08:57:36.587Z,9.20
2018-04-18T09:00:04.834Z,9.57
2018-04-18T09:02:33.587Z,8.60
2018-04-18T09:05:01.786Z,9.70
2018-04-18T09:07:30.016Z,11.07
2018-04-18T09:09:58.859Z,10.40
2018-04-18T09:12:27.087Z,9.97
2018-04-18T09:14:55.314Z,11.20
2018-04-18T09:17:24.062Z,10.20
2018-04-18T09:19:52.263Z,11.83
2018-04-18T09:22:20.470Z,11.03
2018-04-18T09:24:49.164Z,11.47
2018-04-18T09:27:17.367Z,11.20
2018-04-18T09:29:45.575Z,11.93
2018-04-18T09:32:14.231Z,11.07
2018-04-18T09:34:42.444Z,11.50
2018-04-18T09:37:10.674Z,9.60
2018-04-18T09:39:39.400Z,10.13
2018-04-18T09:42:07.643Z,9.03
2018-04-18T09:44:35.851Z,10.77
2018-04-18T09:47:04.439Z,9.77
2018-04-18T09:49:32.637Z,9.47
2018-04-18T09:52:00.852Z,9.63
2018-04-18T09:54:29.539Z,9.87
2018-04-18T09:56:57.750Z,9.93
2018-04-18T09:59:25.955Z,10.73
2018-04-18T10:01:54.701Z,11.17
2018-04-18T10:04:28.360Z,9.80
2018-04-18T10:06:56.810Z,9.83
2018-04-18T10:09:25.420Z,10.67
2018-04-18T10:11:53.630Z,10.03
2018-04-18T10:14:22.066Z,10.60
2018-04-18T10:16:50.621Z,11.03
2018-04-18T10:19:18.852Z,11.30
2018-04-18T10:21:47.134Z,11.27
2018-04-18T10:24:15.707Z,10.73
2018-04-18T10:26:43.943Z,9.63
2018-04-18T10:29:12.351Z,12.83
2018-04-18T10:31:40.887Z,11.37
2018-04-18T10:34:09.083Z,11.03
2018-04-18T10:36:37.289Z,11.20
2018-04-18T10:39:06.419Z,11.43
2018-04-18T10:41:34.654Z,11.00
2018-04-18T10:44:02.904Z,10.33
2018-04-18T10:46:31.394Z,21.17
2018-04-18T10:48:59.616Z,10.40
2018-04-18T10:51:27.893Z,9.93
2018-04-18T10:53:56.439Z,8.40
2018-04-18T10:56:24.689Z,9.53
2018-04-18T10:58:52.910Z,9.10
2018-04-18T11:01:21.707Z,12.27
2018-04-18T11:03:49.956Z,11.27
2018-04-18T11:06:18.208Z,10.20
2018-04-18T11:08:46.705Z,11.57
2018-04-18T11:11:14.937Z,11.53
2018-04-18T11:13:43.982Z,12.97
2018-04-18T11:16:12.179Z,10.37
2018-04-18T11:18:41.058Z,11.90
2018-04-18T11:21:09.268Z,10.83
2018-04-18T11:23:37.574Z,11.63
2018-04-18T11:26:06.090Z,11.87
2018-04-18T11:28:41.731Z,11.67
2018-04-18T11:31:09.977Z,11.70
2018-04-18T11:33:38.353Z,12.00
2018-04-18T11:36:06.875Z,11.93
2018-04-18T11:38:35.124Z,10.70
2018-04-18T11:41:03.469Z,11.57
2018-04-18T11:43:31.987Z,11.40
2018-04-18T11:46:00.301Z,11.33
2018-04-18T11:48:28.540Z,12.23
2018-04-18T11:50:57.090Z,11.50
2018-04-18T11:53:25.295Z,12.30
2018-04-18T11:55:53.831Z,11.87
2018-04-18T11:58:22.301Z,10.57
2018-04-18T12:00:50.532Z,11.77
2018-04-18T12:03:18.824Z,13.17
2018-04-18T12:05:47.336Z,11.40
2018-04-18T12:08:15.590Z,11.93
2018-04-18T12:10:44.097Z,11.93
2018-04-18T12:13:12.440Z,11.70
2018-04-18T12:15:40.678Z,11.87
2018-04-18T12:18:08.937Z,13.47
2018-04-18T12:20:37.578Z,11.67
2018-04-18T12:23:05.759Z,12.70
2018-04-18T12:25:34.087Z,13.02
2018-04-18T12:28:02.677Z,13.25
2018-04-18T12:30:30.888Z,12.63
2018-04-18T12:32:59.169Z,12.93
2018-04-18T12:35:27.848Z,12.43
2018-04-18T12:37:56.089Z,11.77
2018-04-18T12:40:24.310Z,12.27
2018-04-18T12:42:52.910Z,12.23
2018-04-18T12:45:21.147Z,13.55
2018-04-18T12:47:49.496Z,12.00
2018-04-18T12:50:18.041Z,12.98
2018-04-18T12:52:46.262Z,14.60
2018-04-18T12:55:14.670Z,13.02
2018-04-18T12:57:43.147Z,11.12
2018-04-18T13:00:11.394Z,12.90
2018-04-18T13:02:39.763Z,12.52
2018-04-18T13:05:08.276Z,14.30
2018-04-18T13:07:36.491Z,12.85
2018-04-18T13:10:04.774Z,13.75
2018-04-18T13:12:33.438Z,12.18
2018-04-18T13:15:01.696Z,14.00
2018-04-18T13:17:29.940Z,12.35
2018-04-18T13:19:58.477Z,12.80
2018-04-18T13:22:26.709Z,12.27
2018-04-18T13:24:55.090Z,11.43
2018-04-18T13:27:23.584Z,13.25
2018-04-18T13:29:51.800Z,12.75
2018-04-18T13:32:20.162Z,11.10
2018-04-18T13:34:48.687Z,10.25
2018-04-18T13:37:16.904Z,9.52
2018-04-18T13:39:45.306Z,10.35
2018-04-18T13:42:13.955Z,9.73
2018-04-18T13:44:42.270Z,8.32
2018-04-18T13:47:10.477Z,7.60
2018-04-18T13:49:39.096Z,8.38
2018-04-18T13:52:07.318Z,8.02
2018-04-18T13:54:35.595Z,7.85
2018-04-18T13:57:04.239Z,7.12
2018-04-18T13:59:32.490Z,7.37
2018-04-18T14:02:00.749Z,6.85
2018-04-18T14:04:29.376Z,6.45
2018-04-18T14:06:57.609Z,8.15
2018-04-18T14:09:25.799Z,5.95
2018-04-18T14:11:54.454Z,6.07
2018-04-18T14:14:22.680Z,5.65
2018-04-18T14:16:50.929Z,5.62
2018-04-18T14:19:19.529Z,4.62
2018-04-18T14:21:47.809Z,4.75
2018-04-18T14:24:16.052Z,4.60
2018-04-18T14:26:44.595Z,4.72
2018-04-18T14:29:12.857Z,4.00
2018-04-18T14:31:41.151Z,4.80
2018-04-18T14:34:11.029Z,3.53
2018-04-18T14:36:39.197Z,4.03
2018-04-18T14:39:07.409Z,3.53
2018-04-18T14:41:35.617Z,3.90
2018-04-18T14:44:04.247Z,5.20
2018-04-18T14:46:32.458Z,3.70
2018-04-18T14:49:00.835Z,4.40
2018-04-18T14:51:29.394Z,4.85
2018-04-18T14:53:57.632Z,4.82
2018-04-18T14:56:25.903Z,4.80
2018-04-18T14:58:54.695Z,4.60
2018-04-18T15:01:22.898Z,4.22
2018-04-18T15:03:51.086Z,3.95
2018-04-18T15:06:19.657Z,4.18
2018-04-18T15:08:47.856Z,4.25
2018-04-18T15:11:16.599Z,4.22
2018-04-18T15:13:45.321Z,3.37
2018-04-18T15:16:13.525Z,2.92
2018-04-18T15:18:43.735Z,3.00
2018-04-18T15:21:12.698Z,4.00
2018-04-18T15:23:41.460Z,3.37
2018-04-18T15:26:10.632Z,3.08
2018-04-18T15:28:38.915Z,3.75
2018-04-18T15:31:07.626Z,3.80
2018-04-18T15:33:36.374Z,3.83
2018-04-18T15:36:05.404Z,3.35
2018-04-18T15:38:33.593Z,3.55
2018-04-18T15:41:02.689Z,2.53
2018-04-18T15:43:31.450Z,2.87
2018-04-18T15:46:00.393Z,2.72
2018-04-18T15:48:28.591Z,2.62
2018-04-18T15:50:57.589Z,2.80
2018-04-18T15:53:26.695Z,2.20
2018-04-18T15:55:55.614Z,2.62
2018-04-18T15:58:23.833Z,2.95
2018-04-18T16:00:52.605Z,2.65
2018-04-18T16:03:21.544Z,2.95
2018-04-18T16:05:50.565Z,3.17
2018-04-18T16:08:18.779Z,2.80
2018-04-18T16:10:47.708Z,6.67
2018-04-18T16:13:16.681Z,2.65
2018-04-18T16:15:45.658Z,2.53
2018-04-18T16:18:13.956Z,2.33
2018-04-18T16:20:42.877Z,2.40
2018-04-18T16:23:12.755Z,2.20
2018-04-18T16:25:41.628Z,2.67
2018-04-18T16:28:09.867Z,2.47
2018-04-18T16:30:41.949Z,2.77
2018-04-18T16:33:11.031Z,2.67
2018-04-18T16:35:39.237Z,2.63
2018-04-18T16:38:08.091Z,2.90
2018-04-18T16:40:37.049Z,2.10
2018-04-18T16:43:05.982Z,3.07
2018-04-18T16:45:34.195Z,3.03
2018-04-18T16:48:02.452Z,3.10
2018-04-18T16:50:31.142Z,3.47
2018-04-18T16:52:59.392Z,2.90
2018-04-18T16:55:28.187Z,2.87
2018-04-18T16:57:57.269Z,4.47
2018-04-18T17:00:26.217Z,4.10
2018-04-18T17:02:54.431Z,3.20
2018-04-18T17:05:23.326Z,3.27
2018-04-18T17:07:52.159Z,3.93
2018-04-18T17:10:21.817Z,4.50
2018-04-18T17:12:50.106Z,3.33
2018-04-18T17:15:18.308Z,2.80
2018-04-18T17:17:47.119Z,3.10
2018-04-18T17:20:16.160Z,2.90
2018-04-18T17:22:44.431Z,3.30
2018-04-18T17:25:14.034Z,3.67
2018-04-18T17:27:42.407Z,3.87
2018-04-18T17:30:11.191Z,5.43
2018-04-18T17:32:39.420Z,9.73
2018-04-18T17:35:08.159Z,4.20
2018-04-18T17:37:37.447Z,2.90
2018-04-18T17:40:06.153Z,2.90
2018-04-18T17:45:33.116Z,3.47
2018-04-18T17:48:02.098Z,2.70
2018-04-18T17:50:30.925Z,3.07
2018-04-18T17:52:59.137Z,3.30
2018-04-18T17:55:28.175Z,3.07
2018-04-18T17:57:57.835Z,3.27
2018-04-18T18:00:26.663Z,3.23
2018-04-18T18:02:54.931Z,3.53
2018-04-18T18:05:23.157Z,4.33
2018-04-18T18:07:52.116Z,3.27
2018-04-18T18:10:20.898Z,3.33
2018-04-18T18:12:49.147Z,3.73
2018-04-18T18:15:17.956Z,4.30
2018-04-18T18:17:46.918Z,3.93
2018-04-18T18:20:15.789Z,4.53
2018-04-18T18:22:44.006Z,4.57
2018-04-18T18:25:12.264Z,6.37
2018-04-18T18:27:40.973Z,6.07
2018-04-18T18:30:09.173Z,6.90
2018-04-18T18:32:38.112Z,7.40
2018-04-18T18:35:07.218Z,7.70
2018-04-18T18:37:36.129Z,7.53
2018-04-18T18:40:04.385Z,7.87
2018-04-18T18:42:33.330Z,7.30
2018-04-18T18:45:02.613Z,7.77
2018-04-18T18:47:31.667Z,7.73
2018-04-18T18:49:59.989Z,8.00
2018-04-18T18:52:28.257Z,7.13
2018-04-18T18:54:57.323Z,7.90
2018-04-18T18:57:26.240Z,8.37
2018-04-18T18:59:54.534Z,7.80
2018-04-18T19:02:23.318Z,7.03
2018-04-18T19:04:52.164Z,7.67
2018-04-18T19:07:21.195Z,7.70
2018-04-18T19:09:49.413Z,9.13
2018-04-18T19:12:18.246Z,9.20
2018-04-18T19:14:47.179Z,7.73
2018-04-18T19:17:16.132Z,7.70
2018-04-18T19:19:44.340Z,10.87
2018-04-18T19:22:13.383Z,9.27
2018-04-18T19:24:42.158Z,8.47
2018-04-18T19:27:11.191Z,9.40
2018-04-18T19:29:39.424Z,9.13
2018-04-18T19:32:08.214Z,11.43
2018-04-18T19:34:36.963Z,12.10
2018-04-18T19:37:05.965Z,9.70
2018-04-18T19:39:34.202Z,9.53
2018-04-18T19:42:03.093Z,11.33
2018-04-18T19:44:31.938Z,13.80
2018-04-18T19:47:00.848Z,12.73
2018-04-18T19:49:29.098Z,17.10
2018-04-18T19:51:57.966Z,17.13
2018-04-18T19:54:26.770Z,15.73
2018-04-18T19:56:55.754Z,15.73
2018-04-18T19:59:24.035Z,16.53
2018-04-18T20:01:52.747Z,16.60
2018-04-18T20:04:21.609Z,16.43
2018-04-18T20:06:49.895Z,16.43
2018-04-18T20:09:18.083Z,16.23
2018-04-18T20:11:47.188Z,16.57
2018-04-18T20:14:15.607Z,15.27
2018-04-18T20:16:43.886Z,16.27
2018-04-18T20:19:12.189Z,17.27
2018-04-18T20:21:40.702Z,18.23
2018-04-18T20:24:08.968Z,16.47
2018-04-18T20:26:37.805Z,16.20
2018-04-18T20:29:06.370Z,17.10
2018-04-18T20:31:34.651Z,16.27
2018-04-18T20:34:02.916Z,17.30
2018-04-18T20:36:37.052Z,16.33
2018-04-18T20:39:05.914Z,16.97
2018-04-18T20:41:34.213Z,18.27
2018-04-18T20:44:02.553Z,17.60
2018-04-18T20:46:31.082Z,16.30
2018-04-18T20:48:59.315Z,16.20
2018-04-18T20:51:27.576Z,18.20
2018-04-18T20:53:56.343Z,16.93
2018-04-18T20:56:24.549Z,16.73
2018-04-18T20:58:52.770Z,16.10
2018-04-18T21:01:21.337Z,16.20
2018-04-18T21:03:50.260Z,14.37
2018-04-18T21:06:18.558Z,15.43
2018-04-18T21:08:47.103Z,17.17
2018-04-18T21:11:15.372Z,15.80
2018-04-18T21:13:44.604Z,17.03
2018-04-18T21:16:12.866Z,16.63
2018-04-18T21:18:41.594Z,16.17
2018-04-18T21:21:09.812Z,15.60
2018-04-18T21:23:38.999Z,14.70
2018-04-18T21:26:07.806Z,13.57
2018-04-18T21:28:36.081Z,13.10
2018-04-18T21:31:04.299Z,13.87
2018-04-18T21:33:32.870Z,13.27
2018-04-18T21:36:01.098Z,11.87
2018-04-18T21:38:29.571Z,13.30
2018-04-18T21:40:58.387Z,12.90
2018-04-18T21:43:27.094Z,12.83
2018-04-18T21:45:55.312Z,12.27
2018-04-18T21:48:23.557Z,11.50
2018-04-18T21:50:52.284Z,12.17
2018-04-18T21:53:20.483Z,11.70
2018-04-18T21:55:48.727Z,12.23
2018-04-18T21:58:17.378Z,12.07
2018-04-18T22:06:57.773Z,11.33
2018-04-18T22:09:49.024Z,12.77
2018-04-18T22:12:37.855Z,11.43
2018-04-18T22:15:18.523Z,11.80
2018-04-18T22:17:47.028Z,12.33
2018-04-18T22:20:15.223Z,11.10
2018-04-18T22:22:43.971Z,10.73
2018-04-18T22:25:12.213Z,10.50
2018-04-18T22:27:40.411Z,9.50
2018-04-18T22:30:14.463Z,9.40
2018-04-18T22:32:43.134Z,9.40
2018-04-18T22:35:11.317Z,9.77
2018-04-18T22:37:39.581Z,8.93
2018-04-18T22:40:08.411Z,9.73
2018-04-18T22:42:36.644Z,8.47
2018-04-18T22:45:04.836Z,8.03
2018-04-18T22:47:33.505Z,8.13
2018-04-18T22:50:01.721Z,7.90
2018-04-18T22:52:29.990Z,6.90
2018-04-18T22:54:58.579Z,7.50
2018-04-18T22:57:26.794Z,7.27
2018-04-18T22:59:55.013Z,6.97
2018-04-18T23:02:23.772Z,7.67
2018-04-18T23:04:51.971Z,7.47
2018-04-18T23:07:20.667Z,7.50
2018-04-18T23:09:49.323Z,7.00
2018-04-18T23:12:17.535Z,7.20
2018-04-18T23:14:45.876Z,6.57
2018-04-18T23:17:14.481Z,7.97
2018-04-18T23:19:42.668Z,7.77
2018-04-18T23:22:10.931Z,7.93
2018-04-18T23:24:39.738Z,9.00
2018-04-18T23:27:07.948Z,8.43
2018-04-18T23:29:36.668Z,8.50
2018-04-18T23:32:05.282Z,7.70
2018-04-18T23:34:33.528Z,8.90
2018-04-18T23:37:01.912Z,7.80
2018-04-18T23:39:30.500Z,8.00
2018-04-18T23:41:58.763Z,7.80
2018-04-18T23:44:27.009Z,7.90
2018-04-18T23:46:55.691Z,7.50
2018-04-18T23:49:23.919Z,6.23
2018-04-18T23:51:52.159Z,7.53
2018-04-18T23:54:20.745Z,8.80
2018-04-18T23:56:49.537Z,7.80
2018-04-18T23:59:17.766Z,7.63
